Time;durP1;ratioP1;P1;durP2;ratioP2;P2;SDS_P1;SDS_P2;PMS_P1;PMS_P2;Temp;Humidity;BMP_temperature;BMP_pressure;BME280_temperature;BME280_humidity;BME280_pressure;Samples;Min_cycle;Max_cycle;Signal;HPM_P1;HPM_P2
2022/08/26 00:00:51;;;;;;;10.05;7.20;;;16.90;99.90;;;;;;5072533;28;20043;-45
2022/08/26 00:03:18;;;;;;;14.52;9.13;;;16.90;99.90;;;;;;5072751;28;20028;-47
2022/08/26 00:05:44;;;;;;;12.68;8.15;;;16.80;99.90;;;;;;5070395;28;20369;-55
2022/08/26 00:08:12;;;;;;;10.60;8.48;;;16.80;99.90;;;;;;5072584;28;20034;-47
2022/08/26 00:10:38;;;;;;;10.45;8.32;;;16.70;99.90;;;;;;5072764;28;20129;-45
2022/08/26 00:13:05;;;;;;;11.10;8.95;;;16.70;99.90;;;;;;5072583;28;20017;-45
2022/08/26 00:15:31;;;;;;;10.50;8.80;;;16.70;99.90;;;;;;5072547;28;20029;-45
2022/08/26 00:17:57;;;;;;;10.98;8.93;;;16.60;99.90;;;;;;5072303;28;20476;-48
2022/08/26 00:20:27;;;;;;;11.32;9.13;;;16.60;99.90;;;;;;5072406;28;20041;-45
2022/08/26 00:22:53;;;;;;;11.52;8.23;;;16.50;99.90;;;;;;5072287;28;20021;-51
2022/08/26 00:25:19;;;;;;;10.77;8.73;;;16.50;99.90;;;;;;5072366;28;20033;-50
2022/08/26 00:27:46;;;;;;;10.88;8.20;;;16.50;99.90;;;;;;5069487;28;20087;-47
2022/08/26 00:30:19;;;;;;;10.80;7.95;;;16.50;99.90;;;;;;5066585;28;20074;-47
2022/08/26 00:32:45;;;;;;;10.27;8.50;;;16.50;99.90;;;;;;5065660;28;20052;-45
2022/08/26 00:35:11;;;;;;;9.90;8.20;;;16.50;99.90;;;;;;5071509;28;20518;-50
2022/08/26 00:37:39;;;;;;;9.93;8.00;;;16.50;99.90;;;;;;5071581;28;20025;-49
2022/08/26 00:40:09;;;;;;;12.70;8.20;;;16.40;99.90;;;;;;5072186;28;20043;-54
2022/08/26 00:42:34;;;;;;;13.50;8.10;;;16.40;99.90;;;;;;5072049;28;20020;-49
2022/08/26 00:45:01;;;;;;;10.10;7.28;;;16.40;99.90;;;;;;5071906;28;20387;-53
2022/08/26 00:47:50;;;;;;;9.95;7.82;;;16.40;99.90;;;;;;5071787;28;20020;-45
2022/08/26 00:50:23;;;;;;;11.50;7.90;;;16.40;99.90;;;;;;5071990;28;20028;-59
2022/08/26 00:52:50;;;;;;;10.82;8.43;;;16.30;99.90;;;;;;5070694;28;20013;-48
2022/08/26 00:55:24;;;;;;;11.85;8.45;;;16.20;99.90;;;;;;5071922;28;20115;-48
2022/08/26 00:57:50;;;;;;;12.50;8.38;;;16.20;99.90;;;;;;5071664;28;20032;-48
2022/08/26 01:00:21;;;;;;;12.20;8.23;;;16.20;99.90;;;;;;5071570;28;20033;-45
2022/08/26 01:02:48;;;;;;;10.23;8.48;;;16.20;99.90;;;;;;5071654;28;20070;-51
2022/08/26 01:05:15;;;;;;;12.40;8.05;;;16.20;99.90;;;;;;5071822;28;20021;-45
2022/08/26 01:07:41;;;;;;;13.35;8.65;;;16.10;99.90;;;;;;5071524;28;20027;-45
2022/08/26 01:10:11;;;;;;;12.00;8.20;;;16.10;99.90;;;;;;5071607;28;20070;-46
2022/08/26 01:12:43;;;;;;;11.68;9.15;;;16.10;99.90;;;;;;5071325;28;20036;-51
2022/08/26 01:15:12;;;;;;;13.18;8.68;;;16.10;99.90;;;;;;5071328;28;20066;-55
2022/08/26 01:17:38;;;;;;;11.18;8.50;;;16.00;99.90;;;;;;5071408;28;20027;-47
2022/08/26 01:20:31;;;;;;;11.25;8.55;;;16.00;99.90;;;;;;5071467;28;20044;-46
2022/08/26 01:23:03;;;;;;;12.48;8.93;;;16.00;99.90;;;;;;5071192;28;20060;-46
2022/08/26 01:25:32;;;;;;;13.35;9.02;;;16.00;99.90;;;;;;5071216;28;20039;-48
2022/08/26 01:28:01;;;;;;;12.20;9.13;;;16.00;99.90;;;;;;5071111;28;20040;-56
2022/08/26 01:30:29;;;;;;;13.95;9.85;;;16.00;99.90;;;;;;5071245;28;20068;-48
2022/08/26 01:32:58;;;;;;;15.17;9.30;;;16.00;99.90;;;;;;5071152;28;20032;-46
2022/08/26 01:35:24;;;;;;;11.45;8.80;;;16.00;99.90;;;;;;5070963;28;20035;-51
2022/08/26 01:37:53;;;;;;;13.35;9.50;;;15.90;99.90;;;;;;5071235;28;20028;-51
2022/08/26 01:40:24;;;;;;;11.95;9.25;;;16.00;99.90;;;;;;5071101;28;20043;-55
2022/08/26 01:42:52;;;;;;;13.35;9.05;;;16.00;99.90;;;;;;5071226;28;20028;-52
2022/08/26 01:45:23;;;;;;;15.57;9.68;;;16.00;99.90;;;;;;5070891;28;20036;-50
2022/08/26 01:47:52;;;;;;;13.90;9.63;;;16.00;99.90;;;;;;5070548;28;20028;-47
2022/08/26 01:50:21;;;;;;;15.45;10.18;;;16.00;99.90;;;;;;5070989;28;20552;-47
2022/08/26 01:52:50;;;;;;;14.57;9.45;;;16.00;99.90;;;;;;5057518;28;20020;-47
2022/08/26 01:55:19;;;;;;;11.10;8.50;;;16.00;99.90;;;;;;5070970;28;20028;-47
2022/08/26 01:57:48;;;;;;;14.98;9.70;;;16.00;99.90;;;;;;5069411;28;20387;-48
2022/08/26 02:00:14;;;;;;;;;;;16.00;99.90;;;;;;5071327;28;20064;-45
2022/08/26 02:02:42;;;;;;;14.32;9.23;;;16.00;99.90;;;;;;5070604;28;20047;-48
2022/08/26 02:05:13;;;;;;;13.38;9.45;;;16.00;99.90;;;;;;5070740;28;20035;-47
2022/08/26 02:07:39;;;;;;;13.60;9.70;;;16.00;99.90;;;;;;5069416;28;20024;-50
2022/08/26 02:10:06;;;;;;;13.43;9.52;;;15.90;99.90;;;;;;5070824;28;20033;-48
2022/08/26 02:12:32;;;;;;;12.63;9.82;;;15.90;99.90;;;;;;5070483;28;20518;-48
2022/08/26 02:15:02;;;;;;;13.15;9.70;;;15.90;99.90;;;;;;5070663;28;20494;-48
2022/08/26 02:17:34;;;;;;;13.00;9.40;;;15.90;99.90;;;;;;5070571;28;20021;-51
2022/08/26 02:20:00;;;;;;;16.50;9.85;;;15.90;99.90;;;;;;5070717;28;20154;-50
2022/08/26 02:22:27;;;;;;;13.52;9.65;;;15.90;99.90;;;;;;5070589;28;20081;-51
2022/08/26 02:25:06;;;;;;;13.65;10.10;;;15.80;99.90;;;;;;5070400;28;20028;-48
2022/08/26 02:27:33;;;;;;;;;;;15.80;99.90;;;;;;5071034;28;20027;-53
2022/08/26 02:30:09;;;;;;;14.15;9.32;;;15.80;99.90;;;;;;5070284;28;19934;-45
2022/08/26 02:32:35;;;;;;;13.52;9.35;;;15.80;99.90;;;;;;5063231;28;20029;-48
2022/08/26 02:35:01;;;;;;;11.80;9.07;;;15.70;99.90;;;;;;5070228;28;20029;-48
2022/08/26 02:37:31;;;;;;;12.13;9.18;;;15.60;99.90;;;;;;5070507;28;20048;-54
2022/08/26 02:39:56;;;;;;;15.15;9.70;;;15.60;99.90;;;;;;5070463;28;20067;-48
2022/08/26 02:42:22;;;;;;;15.35;10.18;;;15.50;99.90;;;;;;5070285;28;20021;-48
2022/08/26 02:44:48;;;;;;;15.68;9.77;;;15.40;99.90;;;;;;5070385;28;20510;-51
2022/08/26 02:47:15;;;;;;;13.23;9.02;;;15.40;99.90;;;;;;5070176;28;20116;-56
2022/08/26 02:49:42;;;;;;;13.93;9.75;;;15.30;99.90;;;;;;5070067;28;20079;-54
2022/08/26 02:52:08;;;;;;;14.90;10.18;;;15.30;99.90;;;;;;5070369;28;20032;-48
2022/08/26 02:54:34;;;;;;;11.93;8.70;;;15.20;99.90;;;;;;5070360;28;20036;-49
2022/08/26 02:57:00;;;;;;;13.60;8.93;;;15.20;99.90;;;;;;5067836;28;20020;-47
2022/08/26 02:59:25;;;;;;;15.13;9.60;;;15.10;99.90;;;;;;5071212;28;20059;-47
2022/08/26 03:01:51;;;;;;;12.13;8.45;;;15.10;99.90;;;;;;5074056;28;20494;-49
2022/08/26 03:04:17;;;;;;;12.05;8.45;;;15.10;99.90;;;;;;5073805;28;20025;-49
2022/08/26 03:06:43;;;;;;;12.00;8.57;;;15.00;99.90;;;;;;5073819;28;20032;-46
2022/08/26 03:09:09;;;;;;;13.13;9.40;;;15.00;99.90;;;;;;5073747;28;20024;-50
2022/08/26 03:11:36;;;;;;;16.67;10.25;;;15.00;99.90;;;;;;5073744;28;20025;-51
2022/08/26 03:14:02;;;;;;;15.10;10.13;;;14.90;99.90;;;;;;5073931;28;20047;-53
2022/08/26 03:16:34;;;;;;;13.68;10.40;;;14.90;99.90;;;;;;5073575;28;20025;-46
2022/08/26 03:19:01;;;;;;;14.27;9.50;;;14.90;99.90;;;;;;5073580;28;20116;-53
2022/08/26 03:21:28;;;;;;;13.32;8.95;;;14.90;99.90;;;;;;5073397;28;20044;-51
2022/08/26 03:23:54;;;;;;;12.35;9.55;;;14.80;99.90;;;;;;5073436;28;20017;-56
2022/08/26 03:26:19;;;;;;;14.20;9.75;;;14.80;99.90;;;;;;5073167;28;20544;-51
2022/08/26 03:31:29;;;;;;;13.60;9.55;;;14.70;99.90;;;;;;5073401;28;20024;-45
2022/08/26 03:33:55;;;;;;;14.68;9.95;;;14.70;99.90;;;;;;5073399;28;20020;-46
2022/08/26 03:36:21;;;;;;;14.30;9.45;;;14.70;99.90;;;;;;5073226;28;20068;-48
2022/08/26 03:38:47;;;;;;;13.82;10.10;;;14.70;99.90;;;;;;5073036;28;20024;-54
2022/08/26 03:41:13;;;;;;;15.30;10.38;;;14.70;99.90;;;;;;5073140;28;20430;-45
2022/08/26 03:43:39;;;;;;;14.63;9.82;;;14.70;99.90;;;;;;5072974;28;20020;-52
2022/08/26 03:46:09;;;;;;;18.60;11.10;;;14.70;99.90;;;;;;5073016;28;20033;-47
2022/08/26 03:48:36;;;;;;;15.02;10.05;;;14.70;99.90;;;;;;5072798;28;20041;-49
2022/08/26 03:51:03;;;;;;;19.75;10.80;;;14.70;99.90;;;;;;5072905;28;20387;-48
2022/08/26 03:53:29;;;;;;;16.63;10.80;;;14.70;99.90;;;;;;5072671;28;20025;-45
2022/08/26 03:55:55;;;;;;;17.92;11.20;;;14.70;99.90;;;;;;5072901;28;20467;-53
2022/08/26 03:58:23;;;;;;;16.58;10.50;;;14.70;99.90;;;;;;5072899;28;20070;-45
2022/08/26 04:00:50;;;;;;;17.30;11.25;;;14.70;99.90;;;;;;5072578;28;20129;-49
2022/08/26 04:03:56;;;;;;;16.65;11.95;;;14.70;99.90;;;;;;5072668;28;20462;-47
2022/08/26 04:06:01;;;;;;;16.60;12.15;;;14.70;99.90;;;;;;5072372;28;20082;-46
2022/08/26 04:08:27;;;;;;;18.60;11.80;;;14.80;99.90;;;;;;5072829;28;20021;-45
2022/08/26 04:10:53;;;;;;;19.75;13.23;;;14.80;99.90;;;;;;5072246;28;20024;-48
2022/08/26 04:13:18;;;;;;;19.55;12.07;;;14.80;99.90;;;;;;5072621;28;20391;-53
2022/08/26 04:15:44;;;;;;;20.98;12.68;;;14.80;99.90;;;;;;5072325;28;20538;-45
2022/08/26 04:18:10;;;;;;;17.25;11.60;;;14.80;99.90;;;;;;5072330;28;20463;-48
2022/08/26 04:20:35;;;;;;;18.10;11.68;;;14.80;99.90;;;;;;5072233;28;20108;-54
2022/08/26 04:23:01;;;;;;;16.95;12.32;;;14.80;99.90;;;;;;5072388;28;20032;-48
2022/08/26 04:25:27;;;;;;;18.90;12.00;;;14.90;99.90;;;;;;5072291;28;20035;-51
2022/08/26 04:27:53;;;;;;;18.40;12.48;;;14.90;99.90;;;;;;5072124;28;20069;-48
2022/08/26 04:30:19;;;;;;;18.70;12.93;;;14.90;99.90;;;;;;5072142;28;20060;-49
2022/08/26 04:32:45;;;;;;;22.98;14.93;;;14.90;99.90;;;;;;5071980;28;20052;-51
2022/08/26 04:35:11;;;;;;;21.55;14.07;;;14.90;99.90;;;;;;5072296;28;20056;-49
2022/08/26 04:37:37;;;;;;;21.70;14.05;;;14.90;99.90;;;;;;5071986;28;20480;-49
2022/08/26 04:40:03;;;;;;;21.10;13.50;;;14.90;99.90;;;;;;5071781;28;20043;-54
2022/08/26 04:42:30;;;;;;;22.65;14.75;;;14.90;99.90;;;;;;5072059;28;20082;-52
2022/08/26 04:44:57;;;;;;;21.52;13.32;;;14.90;99.90;;;;;;5071792;28;20467;-49
2022/08/26 04:47:23;;;;;;;21.23;13.25;;;14.80;99.90;;;;;;5071715;28;20044;-53
2022/08/26 04:49:53;;;;;;;19.85;13.32;;;14.80;99.90;;;;;;5071560;28;20128;-44
2022/08/26 04:52:18;;;;;;;21.58;14.35;;;14.70;99.90;;;;;;5071829;28;20135;-45
2022/08/26 04:54:44;;;;;;;21.02;13.48;;;14.70;99.90;;;;;;5071623;28;20107;-45
2022/08/26 04:57:10;;;;;;;22.15;14.18;;;14.60;99.90;;;;;;5071612;28;20025;-51
2022/08/26 04:59:36;;;;;;;20.25;13.73;;;14.60;99.90;;;;;;5071504;28;20036;-53
2022/08/26 05:02:02;;;;;;;18.92;12.63;;;14.50;99.90;;;;;;5071318;28;20032;-46
2022/08/26 05:04:29;;;;;;;20.45;13.13;;;14.50;99.90;;;;;;5071362;28;20025;-52
2022/08/26 05:06:55;;;;;;;18.60;13.07;;;14.50;99.90;;;;;;5071415;28;20035;-46
2022/08/26 05:09:20;;;;;;;22.10;13.38;;;14.40;99.90;;;;;;5071303;28;20020;-50
2022/08/26 05:11:47;;;;;;;20.42;13.38;;;14.50;99.90;;;;;;5071397;28;20035;-55
2022/08/26 05:14:14;;;;;;;18.95;12.70;;;14.40;99.90;;;;;;5071283;28;20024;-47
2022/08/26 05:16:39;;;;;;;19.10;13.18;;;14.30;99.90;;;;;;5069900;28;20038;-47
2022/08/26 05:19:06;;;;;;;21.70;13.38;;;14.40;99.90;;;;;;5071165;28;20021;-52
2022/08/26 05:21:32;;;;;;;18.00;12.68;;;14.30;99.90;;;;;;5070266;28;20564;-49
2022/08/26 05:23:59;;;;;;;18.75;12.95;;;14.40;99.90;;;;;;5070801;28;20024;-49
2022/08/26 05:26:27;;;;;;;19.98;12.52;;;14.30;99.90;;;;;;5057204;28;20029;-46
2022/08/26 05:28:54;;;;;;;20.20;13.68;;;14.30;99.90;;;;;;5053660;28;20391;-49
2022/08/26 05:31:25;;;;;;;21.38;13.63;;;14.30;99.90;;;;;;5055233;28;20346;-51
2022/08/26 05:33:51;;;;;;;19.70;12.68;;;14.30;99.90;;;;;;5052328;28;20025;-48
2022/08/26 05:36:19;;;;;;;17.50;12.32;;;14.40;99.90;;;;;;5059153;28;20064;-52
2022/08/26 05:38:45;;;;;;;20.33;12.48;;;14.40;99.90;;;;;;5055370;28;20073;-49
2022/08/26 05:41:21;;;;;;;19.33;12.55;;;14.50;99.90;;;;;;5063275;28;20441;-49
2022/08/26 05:43:47;;;;;;;19.55;12.60;;;14.50;99.90;;;;;;5067290;28;20130;-46
2022/08/26 05:46:13;;;;;;;18.67;12.18;;;14.50;99.90;;;;;;5068581;28;20119;-44
2022/08/26 05:48:39;;;;;;;19.48;11.70;;;14.50;99.90;;;;;;5070634;28;20045;-47
2022/08/26 05:51:07;;;;;;;17.52;12.15;;;14.50;99.90;;;;;;5071075;28;20037;-55
2022/08/26 05:53:34;;;;;;;19.58;12.43;;;14.60;99.90;;;;;;5070416;28;20231;-48
2022/08/26 05:56:02;;;;;;;17.33;12.23;;;14.60;99.90;;;;;;5070618;28;20541;-53
2022/08/26 05:58:28;;;;;;;20.13;11.38;;;14.60;99.90;;;;;;5070430;28;20418;-51
2022/08/26 06:00:59;;;;;;;18.20;12.43;;;14.70;99.90;;;;;;5066951;28;20043;-50
2022/08/26 06:03:26;;;;;;;21.42;13.57;;;14.80;99.90;;;;;;5070568;28;20048;-59
2022/08/26 06:05:52;;;;;;;22.02;14.23;;;14.90;99.90;;;;;;5066259;28;20104;-52
2022/08/26 06:08:19;;;;;;;21.83;15.00;;;15.00;99.90;;;;;;5065463;28;20093;-47
2022/08/26 06:10:48;;;;;;;23.75;14.63;;;15.10;99.90;;;;;;5070090;28;20071;-48
2022/08/26 06:13:17;;;;;;;20.17;14.00;;;15.20;99.90;;;;;;5070127;28;20023;-51
2022/08/26 06:15:48;;;;;;;25.83;14.97;;;15.30;99.90;;;;;;5070635;28;20106;-47
2022/08/26 06:18:16;;;;;;;21.75;13.73;;;15.40;99.90;;;;;;5060533;28;20393;-53
2022/08/26 06:20:46;;;;;;;24.23;14.48;;;15.50;99.90;;;;;;5067557;28;20055;-49
2022/08/26 06:25:58;;;;;;;21.55;14.30;;;15.70;99.90;;;;;;5070587;28;20494;-50
2022/08/26 06:28:24;;;;;;;20.25;14.20;;;15.80;99.90;;;;;;5070519;28;20029;-53
2022/08/26 06:30:51;;;;;;;21.67;14.52;;;15.90;99.90;;;;;;5067626;28;20025;-52
2022/08/26 06:33:17;;;;;;;21.50;14.15;;;16.20;99.90;;;;;;5065854;28;20028;-49
2022/08/26 06:35:45;;;;;;;21.20;14.05;;;16.40;99.90;;;;;;5073094;28;20028;-48
2022/08/26 06:38:12;;;;;;;23.70;14.93;;;16.80;99.90;;;;;;5073830;28;20063;-48
2022/08/26 06:40:44;;;;;;;19.10;13.57;;;17.60;99.90;;;;;;5068943;28;20128;-48
2022/08/26 06:43:10;;;;;;;18.90;13.15;;;18.40;99.90;;;;;;5062764;28;20498;-49
2022/08/26 06:45:37;;;;;;;16.45;12.52;;;19.10;99.90;;;;;;5073764;28;20033;-51
2022/08/26 06:48:03;;;;;;;16.30;12.40;;;19.70;99.90;;;;;;5073911;28;20084;-51
2022/08/26 06:50:29;;;;;;;16.25;12.02;;;20.30;99.90;;;;;;5073389;28;20060;-51
2022/08/26 06:52:55;;;;;;;15.70;11.25;;;20.50;99.90;;;;;;5070099;28;20047;-47
2022/08/26 06:55:20;;;;;;;14.38;11.63;;;20.60;99.90;;;;;;5070888;28;20089;-52
2022/08/26 06:57:46;;;;;;;15.57;11.10;;;20.60;99.90;;;;;;5072609;28;20517;-48
2022/08/26 07:00:14;;;;;;;15.30;11.82;;;20.40;99.90;;;;;;5068646;28;20391;-51
2022/08/26 07:02:40;;;;;;;17.83;13.20;;;20.00;99.90;;;;;;5070106;28;20029;-51
2022/08/26 07:05:06;;;;;;;19.00;13.07;;;19.50;99.90;;;;;;5072467;28;20467;-50
2022/08/26 07:07:32;;;;;;;18.92;12.30;;;19.30;99.90;;;;;;5073715;28;20177;-52
2022/08/26 07:09:58;;;;;;;17.98;12.23;;;19.30;99.90;;;;;;5072069;28;20390;-47
2022/08/26 07:12:25;;;;;;;19.02;12.07;;;19.50;99.90;;;;;;5067521;28;20065;-49
2022/08/26 07:14:51;;;;;;;16.52;12.63;;;19.70;99.90;;;;;;5072876;28;20116;-52
2022/08/26 07:17:18;;;;;;;18.88;13.18;;;19.70;99.90;;;;;;5072927;28;20107;-49
2022/08/26 07:19:44;;;;;;;16.25;12.25;;;19.30;99.90;;;;;;5071800;28;20028;-50
2022/08/26 07:22:10;;;;;;;18.33;12.73;;;19.10;99.90;;;;;;5072810;28;20073;-53
2022/08/26 07:24:39;;;;;;;16.75;11.68;;;18.90;99.90;;;;;;5072709;28;20021;-48
2022/08/26 07:27:07;;;;;;;17.60;12.03;;;19.10;99.90;;;;;;5072969;28;20040;-49
2022/08/26 07:29:35;;;;;;;16.13;12.25;;;19.60;99.90;;;;;;5072271;28;20047;-55
2022/08/26 07:32:02;;;;;;;17.63;10.82;;;20.50;99.90;;;;;;5072571;28;20044;-53
2022/08/26 07:34:27;;;;;;;14.95;11.13;;;21.30;99.90;;;;;;5065671;28;20147;-52
2022/08/26 07:36:55;;;;;;;15.02;10.60;;;21.90;99.90;;;;;;5072945;28;20475;-51
2022/08/26 07:39:21;;;;;;;15.30;11.55;;;22.90;99.90;;;;;;5064705;28;20024;-58
2022/08/26 07:41:47;;;;;;;16.50;10.68;;;23.80;99.90;;;;;;5068703;28;20407;-52
2022/08/26 07:44:14;;;;;;;13.27;9.73;;;24.70;99.90;;;;;;5066131;28;20100;-46
2022/08/26 07:46:40;;;;;;;12.25;9.52;;;25.40;97.30;;;;;;5083756;28;20078;-45
2022/08/26 07:49:06;;;;;;;13.55;9.93;;;26.00;95.70;;;;;;5072337;28;20041;-47
2022/08/26 07:51:32;;;;;;;13.15;8.98;;;25.90;94.50;;;;;;5063604;28;20017;-53
2022/08/26 07:53:58;;;;;;;12.00;9.43;;;26.50;95.10;;;;;;5064382;28;20035;-55
2022/08/26 07:56:25;;;;;;;9.60;8.23;;;27.00;91.50;;;;;;5068643;28;20472;-51
2022/08/26 07:58:51;;;;;;;14.98;8.60;;;27.60;91.60;;;;;;5072611;28;20063;-45
2022/08/26 08:01:22;;;;;;;9.73;8.38;;;28.00;91.90;;;;;;5067507;28;20047;-52
2022/08/26 08:03:52;;;;;;;8.88;7.43;;;28.10;88.10;;;;;;5060343;28;20037;-50
2022/08/26 08:06:23;;;;;;;9.85;7.75;;;28.00;91.00;;;;;;5054288;28;20265;-50
2022/08/26 08:08:50;;;;;;;10.40;8.10;;;28.40;89.50;;;;;;5060434;28;20668;-50
2022/08/26 08:11:16;;;;;;;8.98;7.53;;;28.80;89.80;;;;;;5063530;28;20037;-52
2022/08/26 08:13:42;;;;;;;11.77;7.75;;;29.20;86.50;;;;;;5055687;28;20029;-54
2022/08/26 08:16:07;;;;;;;9.15;7.38;;;29.60;82.40;;;;;;5057820;28;20024;-50
2022/08/26 08:18:33;;;;;;;7.53;6.10;;;29.90;82.00;;;;;;5063673;28;20542;-55
2022/08/26 08:21:02;;;;;;;9.25;7.50;;;29.70;82.20;;;;;;5069186;28;20107;-50
2022/08/26 08:23:29;;;;;;;10.30;7.18;;;29.80;79.80;;;;;;5072211;28;20119;-49
2022/08/26 08:26:03;;;;;;;7.72;5.93;;;30.20;81.30;;;;;;5071317;28;20482;-47
2022/08/26 08:28:28;;;;;;;9.68;7.55;;;30.80;79.50;;;;;;5078214;28;20047;-46
2022/08/26 08:30:55;;;;;;;8.15;6.13;;;30.90;76.40;;;;;;5072307;28;20468;-52
2022/08/26 08:33:21;;;;;;;8.68;6.47;;;31.40;74.70;;;;;;5068497;28;20040;-51
2022/08/26 08:35:48;;;;;;;8.35;5.90;;;31.40;73.40;;;;;;5070569;28;20123;-58
2022/08/26 08:38:14;;;;;;;9.02;6.53;;;31.70;72.30;;;;;;5070451;28;20021;-55
2022/08/26 08:40:42;;;;;;;7.00;6.20;;;31.90;71.70;;;;;;5071360;28;20395;-46
2022/08/26 08:43:16;;;;;;;8.18;5.65;;;31.80;69.30;;;;;;5069633;28;20447;-46
2022/08/26 08:45:48;;;;;;;6.97;5.65;;;31.80;71.60;;;;;;5070344;28;20051;-55
2022/08/26 08:48:17;;;;;;;8.07;6.10;;;32.20;71.70;;;;;;5074747;28;20039;-49
2022/08/26 08:51:07;;;;;;;8.70;5.63;;;32.90;68.20;;;;;;5071533;28;20429;-57
2022/08/26 08:53:41;;;;;;;6.72;5.05;;;33.10;66.80;;;;;;5065553;28;20055;-56
2022/08/26 08:56:12;;;;;;;5.60;4.07;;;32.90;65.70;;;;;;5071503;28;20036;-51
2022/08/26 08:58:50;;;;;;;5.78;4.93;;;33.30;65.80;;;;;;5071113;28;20040;-51
2022/08/26 09:01:46;;;;;;;6.60;5.00;;;33.50;62.80;;;;;;5070288;28;20033;-51
2022/08/26 09:04:36;;;;;;;7.32;4.72;;;33.20;63.30;;;;;;5059573;28;20542;-51
2022/08/26 09:07:05;;;;;;;7.15;4.95;;;33.30;65.00;;;;;;5070398;28;20059;-45
2022/08/26 09:09:38;;;;;;;5.95;4.65;;;33.40;61.80;;;;;;5077290;28;20376;-47
2022/08/26 09:12:09;;;;;;;6.15;4.00;;;33.10;60.70;;;;;;5069780;28;20261;-49
2022/08/26 09:14:35;;;;;;;6.22;3.80;;;33.20;62.20;;;;;;5069419;28;20036;-50
2022/08/26 09:17:20;;;;;;;7.13;4.40;;;32.90;61.30;;;;;;5069273;28;20040;-45
2022/08/26 09:19:51;;;;;;;5.45;3.90;;;32.40;59.70;;;;;;5068461;28;20033;-45
2022/08/26 09:22:35;;;;;;;6.60;3.17;;;32.30;60.90;;;;;;5061954;28;20047;-48
2022/08/26 09:25:06;;;;;;;6.70;3.63;;;32.40;62.40;;;;;;5061795;28;20068;-48
2022/08/26 09:27:46;;;;;;;7.30;3.33;;;32.70;61.10;;;;;;5050717;28;20086;-47
2022/08/26 09:30:22;;;;;;;8.82;3.22;;;32.70;60.30;;;;;;5061903;28;20554;-47
2022/08/26 09:33:06;;;;;;;5.22;3.60;;;32.80;58.30;;;;;;5059911;28;20013;-46
2022/08/26 09:35:36;;;;;;;4.55;3.10;;;32.00;60.00;;;;;;5061495;28;20025;-45
2022/08/26 09:38:18;;;;;;;6.72;3.65;;;31.70;60.40;;;;;;5061938;28;20078;-48
2022/08/26 09:40:55;;;;;;;4.43;3.10;;;31.40;61.70;;;;;;5066777;28;20048;-50
2022/08/26 09:43:21;;;;;;;5.80;3.45;;;31.10;63.50;;;;;;5065267;28;20344;-46
2022/08/26 09:45:53;;;;;;;5.00;2.75;;;31.30;61.20;;;;;;5059086;28;20081;-47
2022/08/26 09:48:34;;;;;;;5.82;2.95;;;31.30;65.50;;;;;;5059387;28;20484;-52
2022/08/26 09:51:03;;;;;;;4.45;2.88;;;31.60;62.10;;;;;;5066754;28;20081;-48
2022/08/26 09:53:30;;;;;;;;;;;31.60;60.50;;;;;;5061744;28;20017;-49
2022/08/26 09:56:26;;;;;;;5.85;2.30;;;30.80;59.20;;;;;;5063098;28;19961;-50
2022/08/26 09:58:53;;;;;;;5.88;2.47;;;30.80;61.70;;;;;;5045003;28;20032;-53
2022/08/26 10:01:34;;;;;;;7.82;2.60;;;30.90;63.80;;;;;;5063911;28;20491;-46
2022/08/26 10:04:12;;;;;;;5.00;2.60;;;30.50;57.70;;;;;;5067292;28;20032;-50
2022/08/26 10:07:03;;;;;;;6.05;2.40;;;30.60;58.50;;;;;;5061864;28;20028;-47
2022/08/26 10:09:34;;;;;;;4.97;2.17;;;31.00;62.60;;;;;;5065539;28;20421;-48
2022/08/26 10:12:04;;;;;;;5.15;2.20;;;31.10;62.60;;;;;;5067613;28;20032;-55
2022/08/26 10:14:38;;;;;;;5.28;2.50;;;31.30;58.30;;;;;;5069145;28;20078;-52
2022/08/26 10:17:13;;;;;;;4.43;1.90;;;31.30;58.00;;;;;;5074051;28;20035;-48
2022/08/26 10:19:47;;;;;;;6.72;2.75;;;31.10;55.40;;;;;;5058476;28;20553;-50
2022/08/26 10:22:23;;;;;;;5.28;2.55;;;30.60;59.20;;;;;;5054234;28;20032;-50
2022/08/26 10:24:56;;;;;;;4.60;2.20;;;30.80;59.00;;;;;;5072331;28;20471;-45
2022/08/26 10:27:57;;;;;;;4.65;2.08;;;30.70;58.70;;;;;;5073811;28;20467;-53
2022/08/26 10:30:30;;;;;;;4.40;2.25;;;30.50;55.60;;;;;;5074156;28;20020;-55
2022/08/26 10:33:02;;;;;;;3.83;2.30;;;30.80;56.30;;;;;;5073933;28;20415;-53
2022/08/26 10:35:30;;;;;;;4.07;2.00;;;29.80;56.10;;;;;;5074168;28;20138;-52
2022/08/26 10:38:02;;;;;;;4.07;1.80;;;30.00;60.40;;;;;;5064896;28;20032;-49
2022/08/26 10:41:06;;;;;;;6.35;2.38;;;30.20;55.50;;;;;;5059950;28;20496;-51
2022/08/26 10:43:49;;;;;;;3.67;2.00;;;30.00;55.00;;;;;;5046812;28;20029;-53
2022/08/26 10:46:21;;;;;;;4.47;2.28;;;29.90;58.20;;;;;;5068419;28;20028;-51
2022/08/26 10:49:00;;;;;;;3.67;2.13;;;30.20;59.80;;;;;;5067112;28;20063;-46
2022/08/26 10:51:34;;;;;;;4.07;1.90;;;30.80;60.50;;;;;;5068727;28;20028;-48
2022/08/26 10:54:19;;;;;;;4.38;2.08;;;31.10;60.00;;;;;;5068740;28;20035;-48
2022/08/26 10:57:09;;;;;;;4.50;2.10;;;31.40;54.80;;;;;;5070869;28;20028;-52
2022/08/26 11:01:40;;;;;;;5.25;2.00;;;31.60;54.20;;;;;;5067849;28;20021;-49
2022/08/26 11:02:56;;;;;;;4.70;1.85;;;31.60;58.00;;;;;;5069499;28;20036;-49
2022/08/26 11:05:22;;;;;;;4.93;2.15;;;30.60;53.60;;;;;;5070791;28;20422;-53
2022/08/26 11:07:52;;;;;;;4.55;1.85;;;30.20;59.00;;;;;;5070916;28;20061;-53
2022/08/26 11:10:24;;;;;;;6.50;2.28;;;29.90;57.40;;;;;;5070276;28;20025;-50
2022/08/26 11:12:55;;;;;;;5.13;2.10;;;30.00;57.70;;;;;;5070527;28;20047;-49
2022/08/26 11:15:28;;;;;;;5.57;2.20;;;30.30;56.20;;;;;;5063122;28;20027;-49
2022/08/26 11:18:10;;;;;;;8.18;2.33;;;30.70;56.50;;;;;;5068676;28;20475;-51
2022/08/26 11:20:44;;;;;;;5.10;2.00;;;30.80;58.80;;;;;;5060619;28;20040;-50
2022/08/26 11:23:15;;;;;;;6.00;1.95;;;31.40;54.70;;;;;;5068608;28;20024;-55
2022/08/26 11:26:08;;;;;;;4.50;1.52;;;31.20;56.10;;;;;;5069431;28;20392;-54
2022/08/26 11:28:37;;;;;;;4.25;2.10;;;30.60;57.10;;;;;;5070132;28;20498;-49
2022/08/26 11:31:09;;;;;;;4.80;2.42;;;29.80;57.70;;;;;;5065330;28;20109;-48
2022/08/26 11:33:57;;;;;;;7.03;1.85;;;29.00;59.20;;;;;;5071528;28;20739;-50
2022/08/26 11:36:49;;;;;;;7.45;2.17;;;28.40;58.60;;;;;;5063206;28;20066;-49
2022/08/26 11:39:27;;;;;;;4.72;2.10;;;27.80;61.30;;;;;;5074222;28;20062;-47
2022/08/26 11:41:58;;;;;;;3.80;1.90;;;27.30;64.80;;;;;;5069872;28;20055;-51
2022/08/26 11:44:37;;;;;;;5.60;2.22;;;27.10;66.60;;;;;;5066740;28;20488;-53
2022/08/26 11:47:03;;;;;;;5.70;2.10;;;26.90;66.90;;;;;;5067735;28;20094;-52
2022/08/26 11:49:31;;;;;;;4.25;1.80;;;26.60;64.30;;;;;;5065568;28;20044;-50
2022/08/26 11:52:17;;;;;;;4.70;2.00;;;26.40;64.80;;;;;;5061923;28;20486;-50
2022/08/26 11:55:09;;;;;;;6.70;2.10;;;26.20;65.80;;;;;;5061502;28;20124;-51
2022/08/26 11:57:43;;;;;;;4.93;2.25;;;26.70;66.50;;;;;;5062798;28;20028;-49
2022/08/26 12:00:12;;;;;;;5.20;2.30;;;27.50;61.70;;;;;;5067111;28;20036;-52
2022/08/26 12:02:39;;;;;;;3.92;1.83;;;28.00;60.70;;;;;;5059434;28;20052;-47
2022/08/26 12:05:07;;;;;;;3.78;1.98;;;28.50;63.90;;;;;;5061853;28;20020;-46
2022/08/26 12:07:32;;;;;;;5.93;1.90;;;28.70;58.50;;;;;;5057627;28;20028;-53
2022/08/26 12:10:01;;;;;;;5.18;2.00;;;28.50;59.90;;;;;;5056452;28;20040;-51
2022/08/26 12:12:32;;;;;;;4.22;1.88;;;28.30;55.10;;;;;;5066928;28;20031;-47
2022/08/26 12:15:21;;;;;;;4.65;1.95;;;27.90;57.60;;;;;;5070326;28;20032;-54
2022/08/26 12:17:48;;;;;;;;;;;28.10;57.60;;;;;;5066538;28;20040;-48
2022/08/26 12:20:52;;;;;;;6.13;2.00;;;28.10;61.00;;;;;;5062613;28;19973;-48
2022/08/26 12:23:46;;;;;;;8.00;1.95;;;28.60;57.60;;;;;;5065375;28;20187;-44
2022/08/26 12:26:18;;;;;;;5.40;1.80;;;28.30;57.10;;;;;;5067819;28;20037;-48
2022/08/26 12:28:47;;;;;;;5.63;1.48;;;27.70;60.10;;;;;;5061737;28;20414;-48
2022/08/26 12:31:22;;;;;;;6.07;1.83;;;27.60;63.50;;;;;;5063816;28;20438;-49
2022/08/26 12:33:48;;;;;;;4.72;1.75;;;27.30;62.60;;;;;;5065603;28;20415;-49
2022/08/26 12:36:23;;;;;;;4.25;1.95;;;27.00;62.10;;;;;;5064799;28;20025;-46
2022/08/26 12:38:49;;;;;;;3.60;1.70;;;26.60;64.30;;;;;;5062688;28;20039;-50
2022/08/26 12:41:37;;;;;;;4.10;1.77;;;26.70;64.50;;;;;;5065627;28;20044;-59
2022/08/26 12:44:03;;;;;;;6.03;1.90;;;26.60;61.50;;;;;;5059083;28;20078;-56
2022/08/26 12:46:29;;;;;;;6.97;2.20;;;26.40;62.00;;;;;;5058695;28;20269;-56
2022/08/26 12:48:59;;;;;;;3.35;1.65;;;26.20;63.60;;;;;;5061588;28;20045;-56
2022/08/26 12:51:27;;;;;;;5.40;2.00;;;26.30;62.50;;;;;;5062318;28;20111;-53
2022/08/26 12:53:54;;;;;;;4.13;1.98;;;26.50;59.80;;;;;;5063452;28;20099;-51
2022/08/26 12:56:34;;;;;;;5.95;2.10;;;26.70;65.90;;;;;;5061537;28;20031;-48
2022/08/26 12:59:07;;;;;;;5.13;1.67;;;27.40;61.40;;;;;;5066563;28;20021;-46